createdAt,value
2023-01-03T00:02:08.206Z,4.90
2023-01-03T00:04:35.616Z,4.63
2023-01-03T00:07:03.003Z,7.03
2023-01-03T00:09:30.315Z,6.47
2023-01-03T00:12:16.274Z,5.68
2023-01-03T00:14:44.455Z,6.28
2023-01-03T00:17:12.703Z,5.20
2023-01-03T00:19:44.082Z,3.80
2023-01-03T00:22:12.399Z,4.70
2023-01-03T00:24:39.779Z,3.88
2023-01-03T00:27:07.356Z,3.80
2023-01-03T00:29:34.704Z,2.75
2023-01-03T00:32:02.068Z,2.53
2023-01-03T00:34:29.382Z,2.30
2023-01-03T00:36:57.081Z,1.63
2023-01-03T00:39:24.617Z,1.67
2023-01-03T00:41:52.033Z,1.52
2023-01-03T00:44:19.757Z,1.30
2023-01-03T00:46:47.099Z,1.70
2023-01-03T00:49:14.313Z,1.30
2023-01-03T00:51:41.979Z,0.90
2023-01-03T00:54:34.344Z,0.88
2023-01-03T00:57:01.611Z,0.77
2023-01-03T00:59:28.794Z,0.45
2023-01-03T01:01:57.546Z,0.40
2023-01-03T01:04:24.883Z,0.60
2023-01-03T01:06:53.402Z,0.77
2023-01-03T01:09:22.266Z,0.70
2023-01-03T01:11:49.732Z,0.50
2023-01-03T01:14:20.418Z,0.50
2023-01-03T01:16:48.964Z,0.50
2023-01-03T01:19:16.517Z,0.73
2023-01-03T01:21:44.209Z,1.13
2023-01-03T01:24:17.403Z,2.15
2023-01-03T01:26:45.164Z,1.60
2023-01-03T01:29:13.186Z,2.15
2023-01-03T01:31:40.781Z,2.60
2023-01-03T01:34:08.068Z,2.30
2023-01-03T01:36:41.211Z,1.40
2023-01-03T01:39:14.009Z,1.75
2023-01-03T01:42:00.316Z,1.52
2023-01-03T01:44:45.132Z,1.80
2023-01-03T01:47:15.316Z,1.77
2023-01-03T01:49:43.186Z,1.33
2023-01-03T01:52:11.437Z,1.08
2023-01-03T01:54:40.496Z,1.60
2023-01-03T01:57:08.273Z,1.48
2023-01-03T01:59:35.632Z,1.60
2023-01-03T02:02:03.095Z,1.20
2023-01-03T02:04:32.965Z,1.30
2023-01-03T02:07:00.726Z,1.42
2023-01-03T02:09:27.995Z,1.13
2023-01-03T02:12:16.365Z,1.30
2023-01-03T02:14:51.206Z,0.93
2023-01-03T02:17:18.389Z,0.98
2023-01-03T02:19:48.683Z,1.00
2023-01-03T02:22:15.890Z,1.42
2023-01-03T02:24:55.169Z,0.88
2023-01-03T02:27:34.646Z,1.30
2023-01-03T02:30:07.661Z,1.20
2023-01-03T02:32:43.887Z,1.00
2023-01-03T02:35:11.081Z,1.40
2023-01-03T02:37:38.335Z,1.63
2023-01-03T02:40:11.868Z,1.42
2023-01-03T02:42:58.240Z,1.50
2023-01-03T02:45:43.789Z,1.27
2023-01-03T02:48:40.718Z,1.40
2023-01-03T02:51:11.538Z,1.30
2023-01-03T02:53:44.032Z,1.30
2023-01-03T02:56:13.803Z,1.05
2023-01-03T02:58:41.623Z,1.00
2023-01-03T03:01:11.162Z,1.33
2023-01-03T03:03:39.836Z,1.02
2023-01-03T03:06:21.181Z,1.10
2023-01-03T03:08:49.039Z,1.10
2023-01-03T03:11:34.994Z,1.30
2023-01-03T03:14:07.972Z,1.33
2023-01-03T03:16:50.026Z,1.70
2023-01-03T03:19:44.819Z,0.90
2023-01-03T03:22:35.841Z,1.20
2023-01-03T03:25:05.515Z,1.00
2023-01-03T03:27:52.048Z,2.35
2023-01-03T03:30:20.757Z,1.60
2023-01-03T03:32:49.546Z,1.25
2023-01-03T03:35:18.517Z,1.38
2023-01-03T03:37:46.676Z,1.55
2023-01-03T03:40:32.998Z,1.10
2023-01-03T03:43:23.970Z,1.30
2023-01-03T03:45:54.197Z,1.30
2023-01-03T03:49:02.988Z,1.30
2023-01-03T03:51:32.300Z,1.00
2023-01-03T03:54:02.511Z,1.40
2023-01-03T03:56:34.223Z,1.75
2023-01-03T03:59:03.444Z,1.10
2023-01-03T04:01:31.063Z,0.88
2023-01-03T04:04:00.380Z,1.20
2023-01-03T04:06:32.031Z,1.15
2023-01-03T04:08:59.399Z,1.40
2023-01-03T04:11:26.635Z,1.30
2023-01-03T04:13:53.955Z,1.75
2023-01-03T04:16:21.206Z,1.20
2023-01-03T04:18:48.490Z,1.75
2023-01-03T04:21:20.442Z,1.10
2023-01-03T04:23:48.339Z,0.77
2023-01-03T04:26:15.890Z,1.20
2023-01-03T04:28:43.101Z,0.90
2023-01-03T04:31:10.377Z,1.08
2023-01-03T04:33:37.657Z,1.00
2023-01-03T04:36:05.009Z,1.17
2023-01-03T04:38:32.246Z,1.33
2023-01-03T04:41:07.008Z,0.70
2023-01-03T04:43:52.898Z,1.30
2023-01-03T04:46:20.394Z,1.17
2023-01-03T04:48:47.651Z,1.42
2023-01-03T04:51:14.874Z,1.55
2023-01-03T04:53:42.091Z,2.05
2023-01-03T04:56:09.310Z,1.23
2023-01-03T04:58:36.700Z,1.15
2023-01-03T05:01:04.764Z,1.13
2023-01-03T05:03:32.188Z,1.20
2023-01-03T05:06:00.666Z,1.20
2023-01-03T05:08:28.134Z,2.22
2023-01-03T05:10:55.805Z,2.28
2023-01-03T05:13:23.538Z,1.17
2023-01-03T05:15:50.818Z,0.77
2023-01-03T05:18:18.059Z,1.33
2023-01-03T05:21:04.367Z,1.30
2023-01-03T05:23:51.253Z,1.42
2023-01-03T05:26:19.978Z,1.63
2023-01-03T05:28:50.003Z,1.90
2023-01-03T05:31:17.383Z,1.90
2023-01-03T05:33:44.726Z,1.13
2023-01-03T05:36:12.017Z,1.30
2023-01-03T05:38:39.576Z,1.48
2023-01-03T05:41:06.853Z,1.15
2023-01-03T05:43:34.227Z,1.00
2023-01-03T05:46:01.474Z,1.05
2023-01-03T05:48:28.806Z,1.77
2023-01-03T05:50:57.859Z,0.55
2023-01-03T05:53:25.468Z,1.67
2023-01-03T05:55:52.873Z,1.17
2023-01-03T05:58:20.381Z,1.10
2023-01-03T06:00:47.895Z,1.30
2023-01-03T06:03:15.177Z,1.20
2023-01-03T06:05:49.543Z,1.67
2023-01-03T06:08:17.694Z,1.13
2023-01-03T06:10:44.964Z,1.23
2023-01-03T06:13:12.957Z,1.25
2023-01-03T06:15:40.337Z,1.05
2023-01-03T06:18:07.595Z,1.20
2023-01-03T06:20:34.784Z,1.17
2023-01-03T06:23:02.027Z,1.35
2023-01-03T06:25:29.281Z,1.50
2023-01-03T06:27:56.520Z,1.05
2023-01-03T06:30:23.742Z,0.80
2023-01-03T06:32:50.976Z,1.02
2023-01-03T06:35:18.266Z,1.50
2023-01-03T06:37:45.548Z,1.30
2023-01-03T06:40:12.918Z,1.00
2023-01-03T06:42:40.197Z,0.75
2023-01-03T06:45:26.393Z,0.90
2023-01-03T06:48:12.383Z,1.83
2023-01-03T06:51:01.646Z,2.10
2023-01-03T06:53:34.085Z,0.80
2023-01-03T06:56:01.781Z,0.70
2023-01-03T06:58:29.041Z,0.70
2023-01-03T07:00:57.597Z,0.70
2023-01-03T07:03:25.227Z,0.98
2023-01-03T07:05:52.531Z,1.42
2023-01-03T07:08:19.923Z,1.05
2023-01-03T07:10:47.226Z,0.70
2023-01-03T07:13:33.223Z,0.70
2023-01-03T07:16:00.546Z,1.25
2023-01-03T07:18:27.822Z,1.08
2023-01-03T07:20:55.019Z,3.45
2023-01-03T07:23:22.251Z,0.93
2023-01-03T07:25:49.522Z,0.85
2023-01-03T07:28:17.381Z,0.88
2023-01-03T07:30:45.404Z,1.48
2023-01-03T07:33:13.571Z,1.38
2023-01-03T07:35:40.900Z,1.30
2023-01-03T07:38:09.372Z,1.20
2023-01-03T07:40:36.659Z,1.60
2023-01-03T07:43:29.879Z,2.00
2023-01-03T07:45:57.222Z,2.60
2023-01-03T07:48:24.499Z,1.10
2023-01-03T07:50:56.679Z,1.58
2023-01-03T07:53:23.929Z,1.58
2023-01-03T07:55:51.161Z,1.10
2023-01-03T07:58:18.381Z,1.10
2023-01-03T08:00:45.606Z,2.60
2023-01-03T08:03:14.415Z,3.50
2023-01-03T08:05:41.701Z,1.90
2023-01-03T08:08:09.188Z,1.58
2023-01-03T08:10:55.331Z,2.55
2023-01-03T08:13:25.056Z,1.80
2023-01-03T08:15:53.560Z,1.90
2023-01-03T08:18:22.314Z,1.50
2023-01-03T08:20:51.443Z,2.33
2023-01-03T08:23:18.730Z,2.55
2023-01-03T08:25:46.039Z,1.60
2023-01-03T08:28:13.478Z,1.70
2023-01-03T08:30:46.407Z,1.75
2023-01-03T08:33:14.857Z,2.00
2023-01-03T08:35:45.129Z,1.30
2023-01-03T08:38:14.633Z,1.30
2023-01-03T08:40:42.783Z,1.20
2023-01-03T08:43:10.776Z,2.15
2023-01-03T08:45:39.072Z,1.10
2023-01-03T08:48:06.932Z,1.23
2023-01-03T08:50:34.804Z,2.55
2023-01-03T08:53:02.064Z,1.73
2023-01-03T08:55:29.267Z,1.17
2023-01-03T08:57:56.561Z,1.00
2023-01-03T09:00:23.859Z,1.48
2023-01-03T09:02:51.355Z,1.88
2023-01-03T09:05:18.850Z,1.50
2023-01-03T09:07:46.066Z,1.58
2023-01-03T09:10:13.289Z,1.40
2023-01-03T09:12:40.542Z,1.63
2023-01-03T09:15:08.091Z,1.20
2023-01-03T09:17:35.389Z,1.65
2023-01-03T09:20:02.636Z,1.35
2023-01-03T09:22:29.894Z,1.20
2023-01-03T09:24:57.216Z,1.20
2023-01-03T09:27:24.424Z,0.88
2023-01-03T09:29:53.168Z,2.35
2023-01-03T09:32:20.810Z,2.38
2023-01-03T09:34:48.067Z,1.48
2023-01-03T09:37:16.049Z,1.42
2023-01-03T09:39:43.399Z,1.55
2023-01-03T09:42:35.555Z,1.30
2023-01-03T09:45:02.939Z,1.10
2023-01-03T09:47:31.771Z,1.88
2023-01-03T09:50:27.588Z,1.75
2023-01-03T09:53:05.301Z,0.73
2023-01-03T09:56:00.372Z,1.00
2023-01-03T09:58:46.184Z,1.20
2023-01-03T10:01:38.079Z,1.20
2023-01-03T10:04:14.585Z,0.95
2023-01-03T10:09:39.985Z,1.45
2023-01-03T10:12:27.500Z,2.03
2023-01-03T10:15:08.383Z,1.75
2023-01-03T10:17:51.728Z,1.73
2023-01-03T10:20:39.236Z,2.35
2023-01-03T10:23:08.938Z,1.42
2023-01-03T10:25:37.560Z,1.67
2023-01-03T10:28:13.661Z,1.33
2023-01-03T10:31:03.779Z,2.33
2023-01-03T10:33:37.589Z,1.30
2023-01-03T10:36:05.853Z,1.38
2023-01-03T10:38:36.825Z,1.42
2023-01-03T10:41:36.048Z,1.90
2023-01-03T10:44:04.314Z,1.30
2023-01-03T10:46:31.992Z,1.73
2023-01-03T10:49:29.334Z,1.80
2023-01-03T10:51:57.045Z,1.92
2023-01-03T10:54:27.160Z,1.13
2023-01-03T10:56:54.496Z,1.10
2023-01-03T10:59:26.798Z,2.08
2023-01-03T11:02:02.504Z,1.75
2023-01-03T11:04:31.115Z,3.08
2023-01-03T11:07:13.235Z,1.45
2023-01-03T11:09:57.426Z,1.60
2023-01-03T11:12:29.945Z,1.13
2023-01-03T11:14:58.358Z,1.27
2023-01-03T11:17:26.719Z,2.38
2023-01-03T11:19:54.685Z,2.60
2023-01-03T11:22:21.902Z,1.05
2023-01-03T11:25:09.082Z,2.10
2023-01-03T11:27:54.986Z,1.25
2023-01-03T11:30:41.332Z,1.42
2023-01-03T11:33:16.379Z,1.98
2023-01-03T11:35:56.802Z,1.17
2023-01-03T11:38:29.809Z,1.48
2023-01-03T11:41:06.124Z,3.28
2023-01-03T11:43:59.714Z,1.48
2023-01-03T11:46:26.960Z,1.90
2023-01-03T11:48:59.571Z,1.20
2023-01-03T11:51:29.896Z,1.20
2023-01-03T11:54:01.392Z,1.83
2023-01-03T11:56:30.060Z,1.83
2023-01-03T11:59:15.979Z,1.20
2023-01-03T12:02:02.170Z,1.70
2023-01-03T12:04:38.669Z,1.55
2023-01-03T12:07:46.991Z,1.13
2023-01-03T12:10:19.790Z,1.77
2023-01-03T12:13:05.972Z,1.67
2023-01-03T12:15:39.231Z,1.00
2023-01-03T12:18:09.636Z,1.50
2023-01-03T12:20:44.782Z,1.73
2023-01-03T12:23:25.739Z,2.30
2023-01-03T12:25:55.805Z,1.42
2023-01-03T12:28:28.903Z,1.50
2023-01-03T12:30:56.184Z,1.73
2023-01-03T12:33:43.503Z,1.67
2023-01-03T12:36:29.410Z,0.98
2023-01-03T12:39:02.553Z,2.55
2023-01-03T12:41:35.377Z,2.70
2023-01-03T12:44:11.593Z,1.77
2023-01-03T12:46:42.091Z,2.13
2023-01-03T12:49:15.536Z,1.25
2023-01-03T12:51:42.798Z,1.52
2023-01-03T12:54:10.035Z,1.73
2023-01-03T12:56:37.250Z,2.25
2023-01-03T12:59:25.053Z,2.60
2023-01-03T13:02:00.930Z,2.38
2023-01-03T13:04:34.329Z,2.28
2023-01-03T13:07:27.533Z,2.03
2023-01-03T13:10:01.423Z,1.45
2023-01-03T13:12:36.297Z,3.03
2023-01-03T13:15:03.673Z,2.05
2023-01-03T13:17:31.814Z,2.13
2023-01-03T13:20:18.063Z,1.40
2023-01-03T13:22:48.482Z,1.48
2023-01-03T13:25:45.266Z,2.85
2023-01-03T13:28:15.592Z,1.90
2023-01-03T13:30:42.901Z,2.33
2023-01-03T13:33:15.482Z,2.42
2023-01-03T13:35:45.483Z,1.33
2023-01-03T13:38:24.507Z,1.98
2023-01-03T13:41:17.261Z,1.42
2023-01-03T13:43:41.470Z,1.30
2023-01-03T13:46:23.500Z,2.50
2023-01-03T13:49:05.151Z,1.63
2023-01-03T13:51:46.998Z,1.50
2023-01-03T13:54:14.355Z,1.48
2023-01-03T13:56:44.673Z,2.03
2023-01-03T13:59:14.966Z,1.50
2023-01-03T14:02:01.053Z,1.92
2023-01-03T14:04:36.789Z,1.83
2023-01-03T14:07:04.025Z,2.00
2023-01-03T14:09:34.297Z,1.00
2023-01-03T14:12:10.442Z,2.33
2023-01-03T14:14:40.436Z,1.70
2023-01-03T14:17:16.509Z,1.50
2023-01-03T14:19:49.403Z,1.70
2023-01-03T14:22:34.864Z,1.25
2023-01-03T14:25:02.213Z,2.08
2023-01-03T14:27:36.029Z,1.60
2023-01-03T14:30:03.244Z,2.10
2023-01-03T14:32:35.155Z,1.70
2023-01-03T14:35:02.938Z,2.05
2023-01-03T14:37:33.067Z,2.67
2023-01-03T14:40:01.770Z,0.95
2023-01-03T14:42:29.253Z,1.58
2023-01-03T14:44:56.462Z,1.65
2023-01-03T14:47:29.606Z,2.17
2023-01-03T14:49:56.900Z,1.73
2023-01-03T14:52:29.763Z,1.70
2023-01-03T14:55:03.634Z,1.40
2023-01-03T14:57:31.589Z,1.17
2023-01-03T15:00:00.653Z,1.17
2023-01-03T15:02:30.677Z,1.30
2023-01-03T15:04:59.015Z,1.85
2023-01-03T15:07:31.990Z,1.35
2023-01-03T15:10:21.873Z,2.00
2023-01-03T15:12:49.945Z,1.77
2023-01-03T15:15:25.274Z,1.90
2023-01-03T15:17:54.363Z,1.42
2023-01-03T15:20:44.823Z,2.05
2023-01-03T15:23:41.527Z,1.48
2023-01-03T15:26:18.845Z,1.67
2023-01-03T15:29:06.668Z,1.52
2023-01-03T15:31:37.168Z,1.90
2023-01-03T15:34:04.671Z,1.95
2023-01-03T15:36:33.104Z,1.60
2023-01-03T15:39:00.611Z,1.45
2023-01-03T15:41:49.100Z,1.75
2023-01-03T15:44:20.940Z,1.98
2023-01-03T15:46:49.887Z,1.40
2023-01-03T15:49:21.755Z,2.75
2023-01-03T15:51:49.040Z,2.67
2023-01-03T15:54:17.468Z,1.50
2023-01-03T15:56:47.549Z,1.45
2023-01-03T15:59:19.515Z,1.65
2023-01-03T16:01:46.930Z,1.35
2023-01-03T16:04:14.413Z,1.92
2023-01-03T16:06:41.652Z,2.05
2023-01-03T16:09:09.701Z,2.80
2023-01-03T16:11:36.922Z,1.30
2023-01-03T16:14:06.310Z,1.48
2023-01-03T16:16:38.367Z,1.38
2023-01-03T16:19:06.355Z,2.05
2023-01-03T16:21:33.680Z,2.05
2023-01-03T16:24:02.673Z,2.15
2023-01-03T16:26:30.075Z,1.48
2023-01-03T16:28:59.289Z,2.92
2023-01-03T16:31:30.773Z,1.48
2023-01-03T16:33:58.305Z,1.92
2023-01-03T16:36:32.975Z,1.48
2023-01-03T16:39:00.668Z,1.67
2023-01-03T16:41:27.907Z,2.38
2023-01-03T16:43:55.227Z,2.45
2023-01-03T16:46:24.503Z,1.83
2023-01-03T16:48:52.995Z,1.98
2023-01-03T16:51:24.382Z,1.88
2023-01-03T16:53:51.807Z,2.13
2023-01-03T16:56:19.092Z,1.65
2023-01-03T16:58:46.316Z,1.88
2023-01-03T17:01:14.405Z,1.55
2023-01-03T17:03:42.557Z,2.10
2023-01-03T17:06:24.950Z,2.38
2023-01-03T17:08:52.350Z,2.50
2023-01-03T17:11:19.644Z,1.90
2023-01-03T17:13:49.005Z,1.40
2023-01-03T17:16:18.181Z,1.85
2023-01-03T17:18:45.994Z,1.38
2023-01-03T17:21:19.877Z,1.77
2023-01-03T17:23:47.996Z,1.75
2023-01-03T17:26:16.880Z,1.67
2023-01-03T17:28:44.972Z,1.25
2023-01-03T17:31:16.148Z,1.70
2023-01-03T17:33:43.695Z,1.60
2023-01-03T17:36:17.537Z,2.22
2023-01-03T17:38:44.945Z,1.55
2023-01-03T17:41:17.845Z,1.30
2023-01-03T17:43:45.349Z,1.50
2023-01-03T17:46:40.316Z,1.80
2023-01-03T17:49:26.496Z,1.65
2023-01-03T17:52:05.663Z,1.17
2023-01-03T17:54:37.587Z,1.77
2023-01-03T17:57:05.423Z,1.60
2023-01-03T17:59:32.659Z,1.48
2023-01-03T18:01:59.980Z,2.05
2023-01-03T18:04:44.131Z,2.00
2023-01-03T18:07:19.276Z,1.63
2023-01-03T18:09:46.994Z,2.58
2023-01-03T18:12:17.327Z,1.30
2023-01-03T18:14:45.055Z,1.88
2023-01-03T18:17:27.801Z,2.75
2023-01-03T18:19:55.332Z,3.97
2023-01-03T18:22:22.971Z,1.77
2023-01-03T18:24:51.276Z,2.08
2023-01-03T18:27:19.637Z,1.88
2023-01-03T18:29:46.898Z,2.25
2023-01-03T18:32:17.167Z,2.08
2023-01-03T18:34:44.432Z,1.70
2023-01-03T18:37:11.687Z,1.80
2023-01-03T18:39:39.036Z,1.70
2023-01-03T18:42:24.958Z,1.70
2023-01-03T18:44:52.257Z,2.22
2023-01-03T18:47:22.506Z,2.22
2023-01-03T18:49:49.741Z,2.63
2023-01-03T18:52:33.503Z,1.70
2023-01-03T18:55:00.840Z,1.40
2023-01-03T18:57:28.081Z,1.67
2023-01-03T18:59:55.339Z,2.22
2023-01-03T19:02:23.051Z,2.22
2023-01-03T19:04:51.872Z,1.85
2023-01-03T19:07:33.630Z,1.80
2023-01-03T19:10:01.472Z,1.42
2023-01-03T19:12:30.010Z,1.80
2023-01-03T19:14:57.238Z,1.92
2023-01-03T19:17:25.224Z,1.90
2023-01-03T19:19:52.445Z,1.42
2023-01-03T19:22:30.069Z,1.77
2023-01-03T19:25:00.208Z,1.83
2023-01-03T19:27:30.431Z,1.60
2023-01-03T19:29:57.657Z,2.15
2023-01-03T19:32:26.592Z,2.10
2023-01-03T19:34:53.882Z,1.55
2023-01-03T19:37:22.367Z,1.95
2023-01-03T19:39:49.688Z,2.63
2023-01-03T19:42:36.840Z,1.40
2023-01-03T19:45:14.335Z,2.45
2023-01-03T19:47:41.556Z,1.83
2023-01-03T19:50:22.915Z,2.97
2023-01-03T19:52:50.535Z,2.78
2023-01-03T19:55:18.069Z,2.50
2023-01-03T19:57:46.731Z,2.55
2023-01-03T20:00:18.570Z,1.65
2023-01-03T20:02:46.206Z,2.57
2023-01-03T20:05:14.740Z,2.28
2023-01-03T20:07:42.203Z,2.97
2023-01-03T20:10:10.498Z,2.72
2023-01-03T20:12:37.722Z,1.88
2023-01-03T20:15:07.496Z,2.47
2023-01-03T20:17:35.005Z,1.90
2023-01-03T20:20:02.276Z,2.58
2023-01-03T20:23:03.287Z,1.52
2023-01-03T20:25:23.998Z,1.98
2023-01-03T20:27:51.608Z,2.08
2023-01-03T20:30:19.922Z,1.92
2023-01-03T20:32:47.369Z,2.25
2023-01-03T20:36:07.034Z,3.05
2023-01-03T20:38:03.548Z,1.92
2023-01-03T20:40:30.767Z,1.95
2023-01-03T20:43:02.427Z,2.15
2023-01-03T20:45:29.839Z,1.70
2023-01-03T20:47:57.164Z,1.23
2023-01-03T20:50:26.849Z,1.95
2023-01-03T20:52:54.986Z,1.70
2023-01-03T20:55:24.691Z,1.73
2023-01-03T20:57:52.216Z,1.75
2023-01-03T21:00:25.186Z,1.73
2023-01-03T21:02:53.061Z,4.53
2023-01-03T21:05:20.828Z,1.65
2023-01-03T21:08:06.781Z,2.28
2023-01-03T21:10:36.643Z,2.67
2023-01-03T21:13:03.979Z,2.60
2023-01-03T21:15:31.421Z,1.80
2023-01-03T21:17:58.858Z,2.47
2023-01-03T21:20:27.045Z,2.90
2023-01-03T21:22:54.341Z,1.10
2023-01-03T21:25:26.145Z,1.95
2023-01-03T21:27:53.932Z,2.77
2023-01-03T21:30:21.808Z,2.95
2023-01-03T21:32:49.401Z,2.38
2023-01-03T21:35:18.370Z,2.75
2023-01-03T21:37:46.190Z,2.58
2023-01-03T21:40:21.112Z,2.45
2023-01-03T21:43:04.801Z,2.42
2023-01-03T21:45:33.607Z,3.22
2023-01-03T21:48:01.702Z,2.67
2023-01-03T21:50:29.088Z,2.25
2023-01-03T21:52:56.806Z,2.58
2023-01-03T21:55:24.453Z,1.70
2023-01-03T21:57:51.829Z,2.28
2023-01-03T22:00:19.460Z,2.42
2023-01-03T22:03:05.522Z,1.92
2023-01-03T22:05:33.011Z,1.77
2023-01-03T22:08:01.355Z,1.55
2023-01-03T22:10:30.121Z,1.92
2023-01-03T22:13:07.071Z,1.50
2023-01-03T22:15:37.703Z,2.33
2023-01-03T22:18:07.635Z,1.60
2023-01-03T22:20:38.445Z,1.40
2023-01-03T22:23:06.978Z,2.03
2023-01-03T22:25:34.224Z,1.38
2023-01-03T22:28:01.475Z,1.60
2023-01-03T22:30:28.761Z,1.65
2023-01-03T22:32:59.053Z,2.03
2023-01-03T22:35:26.365Z,3.00
2023-01-03T22:37:56.223Z,2.25
2023-01-03T22:40:23.428Z,2.40
2023-01-03T22:42:50.706Z,1.90
2023-01-03T22:45:18.004Z,1.88
2023-01-03T22:47:45.223Z,1.60
2023-01-03T22:50:12.534Z,1.80
2023-01-03T22:52:40.284Z,1.80
2023-01-03T22:55:08.263Z,1.73
2023-01-03T22:57:35.492Z,1.95
2023-01-03T23:00:03.164Z,2.03
2023-01-03T23:02:37.223Z,1.80
2023-01-03T23:05:08.713Z,2.03
2023-01-03T23:07:36.036Z,4.43
2023-01-03T23:10:03.233Z,2.40
2023-01-03T23:12:49.281Z,1.83
2023-01-03T23:15:16.621Z,1.85
2023-01-03T23:17:56.637Z,2.47
2023-01-03T23:20:28.462Z,1.88
2023-01-03T23:22:59.852Z,3.10
2023-01-03T23:25:27.857Z,1.63
2023-01-03T23:27:55.087Z,3.05
2023-01-03T23:30:22.382Z,2.88
2023-01-03T23:32:49.617Z,2.88
2023-01-03T23:35:18.444Z,3.28
2023-01-03T23:37:48.516Z,2.30
2023-01-03T23:40:15.888Z,2.95
2023-01-03T23:42:43.262Z,1.17
2023-01-03T23:45:10.743Z,1.65
2023-01-03T23:47:37.969Z,0.75
2023-01-03T23:50:05.309Z,0.70
2023-01-03T23:52:33.895Z,0.45
2023-01-03T23:55:05.328Z,0.20
2023-01-03T23:57:37.619Z,0.20
